Terminal Aerodrome Forecast
Issued by NWS Caribou, ME

Home | Current Version | Previous Version | Text Only | Print | Product List | Glossary On
Versions: 1 2 3 4 5 6 7 8 9 10 11 12 13
000
FTUS41 KCAR 211700
TAFBGR
TAF
KBGR 211720Z 2118/2218 14005KT P6SM BKN250
     FM220200 00000KT P6SM BKN250
     FM221200 VRB03KT P6SM BKN015
     FM221400 08006KT P6SM BKN025
     FM221500 08006KT P6SM BKN040=

USA.gov is the U.S. government's official web portal to all federal, state and local government web resources and services.